createdAt,value
2023-06-19T00:00:03.113Z,21.73
2023-06-19T00:01:03.246Z,21.71
2023-06-19T00:02:02.529Z,21.67
2023-06-19T00:03:02.281Z,21.63
2023-06-19T00:04:02.261Z,21.56
2023-06-19T00:05:02.292Z,21.53
2023-06-19T00:06:02.393Z,21.50
2023-06-19T00:07:02.512Z,21.51
2023-06-19T00:08:02.367Z,21.55
2023-06-19T00:09:02.968Z,21.59
2023-06-19T00:10:02.956Z,21.63
2023-06-19T00:11:02.781Z,21.61
2023-06-19T00:12:02.989Z,21.59
2023-06-19T00:13:03.050Z,21.60
2023-06-19T00:14:03.118Z,21.68
2023-06-19T00:15:03.193Z,21.69
2023-06-19T00:16:03.176Z,21.60
2023-06-19T00:17:03.122Z,21.50
2023-06-19T00:18:03.458Z,21.42
2023-06-19T00:19:02.912Z,21.40
2023-06-19T00:20:03.139Z,21.36
2023-06-19T00:21:03.228Z,21.35
2023-06-19T00:22:02.402Z,21.36
2023-06-19T00:23:02.683Z,21.42
2023-06-19T00:24:02.572Z,21.45
2023-06-19T00:25:02.542Z,21.49
2023-06-19T00:26:02.438Z,21.50
2023-06-19T00:27:03.000Z,21.48
2023-06-19T00:28:03.312Z,21.47
2023-06-19T00:29:03.370Z,21.46
2023-06-19T00:30:03.353Z,21.42
2023-06-19T00:31:03.006Z,21.34
2023-06-19T00:32:03.111Z,21.28
2023-06-19T00:33:03.285Z,21.22
2023-06-19T00:34:02.932Z,21.18
2023-06-19T00:35:03.075Z,21.18
2023-06-19T00:36:03.075Z,21.17
2023-06-19T00:37:03.160Z,21.14
2023-06-19T00:38:03.270Z,21.12
2023-06-19T00:39:03.401Z,21.04
2023-06-19T00:40:03.476Z,20.98
2023-06-19T00:41:03.352Z,20.97
2023-06-19T00:42:02.458Z,20.99
2023-06-19T00:43:02.574Z,21.04
2023-06-19T00:44:02.758Z,21.06
2023-06-19T00:45:02.603Z,21.12
2023-06-19T00:46:02.699Z,21.18
2023-06-19T00:47:02.584Z,21.22
2023-06-19T00:48:02.845Z,21.19
2023-06-19T00:49:02.767Z,21.15
2023-06-19T00:50:02.858Z,21.17
2023-06-19T00:51:02.752Z,21.18
2023-06-19T00:52:02.842Z,21.15
2023-06-19T00:53:02.954Z,21.13
2023-06-19T00:54:03.070Z,21.09
2023-06-19T00:55:02.575Z,21.06
2023-06-19T00:56:02.656Z,21.02
2023-06-19T00:57:03.464Z,20.99
2023-06-19T00:58:03.280Z,20.98
2023-06-19T00:59:03.362Z,21.01
2023-06-19T01:00:03.509Z,20.99
2023-06-19T01:01:08.760Z,20.96
2023-06-19T01:02:03.229Z,20.92
2023-06-19T01:03:03.238Z,20.86
2023-06-19T01:04:03.212Z,20.80
2023-06-19T01:05:02.817Z,20.76
2023-06-19T01:06:02.950Z,20.71
2023-06-19T01:07:02.983Z,20.67
2023-06-19T01:08:02.551Z,20.68
2023-06-19T01:09:02.728Z,20.65
2023-06-19T01:10:02.446Z,20.64
2023-06-19T01:11:09.029Z,20.68
2023-06-19T01:12:03.368Z,20.71
2023-06-19T01:13:03.476Z,20.70
2023-06-19T01:14:03.322Z,20.72
2023-06-19T01:15:03.368Z,20.77
2023-06-19T01:16:03.463Z,20.79
2023-06-19T01:17:03.527Z,20.81
2023-06-19T01:18:03.720Z,20.89
2023-06-19T01:19:03.631Z,20.97
2023-06-19T01:20:03.723Z,20.98
2023-06-19T01:21:03.496Z,20.98
2023-06-19T01:22:03.696Z,20.98
2023-06-19T01:23:03.153Z,20.96
2023-06-19T01:24:03.332Z,20.94
2023-06-19T01:25:03.276Z,20.95
2023-06-19T01:26:03.405Z,20.97
2023-06-19T01:27:02.781Z,20.98
2023-06-19T01:28:02.893Z,21.01
2023-06-19T01:29:02.975Z,21.01
2023-06-19T01:30:02.951Z,20.99
2023-06-19T01:31:02.941Z,20.99
2023-06-19T01:32:03.777Z,20.97
2023-06-19T01:33:03.953Z,20.95
2023-06-19T01:34:03.856Z,20.96
2023-06-19T01:35:03.668Z,20.96
2023-06-19T01:36:03.771Z,20.94
2023-06-19T01:37:03.850Z,20.90
2023-06-19T01:38:03.912Z,20.85
2023-06-19T01:39:03.763Z,20.80
2023-06-19T01:40:03.879Z,20.79
2023-06-19T01:41:03.979Z,20.80
2023-06-19T01:42:03.335Z,20.79
2023-06-19T01:43:03.387Z,20.84
2023-06-19T01:44:03.503Z,20.85
2023-06-19T01:45:03.658Z,20.82
2023-06-19T01:46:03.324Z,20.85
2023-06-19T01:47:03.974Z,20.87
2023-06-19T01:48:03.912Z,20.94
2023-06-19T01:49:03.881Z,21.00
2023-06-19T01:50:03.926Z,21.05
2023-06-19T01:51:04.002Z,21.03
2023-06-19T01:52:02.908Z,20.99
2023-06-19T01:53:02.694Z,21.00
2023-06-19T01:54:02.756Z,20.98
2023-06-19T01:55:02.868Z,20.96
2023-06-19T01:56:02.948Z,20.95
2023-06-19T01:57:03.141Z,20.92
2023-06-19T01:58:03.508Z,20.88
2023-06-19T01:59:03.598Z,20.88
2023-06-19T02:00:03.698Z,20.87
2023-06-19T02:01:03.428Z,20.89
2023-06-19T02:02:01.704Z,20.90
2023-06-19T02:03:02.297Z,20.93
2023-06-19T02:04:01.862Z,20.93
2023-06-19T02:05:01.988Z,20.84
2023-06-19T02:06:02.007Z,20.79
2023-06-19T02:07:02.515Z,20.75
2023-06-19T02:08:02.624Z,20.72
2023-06-19T02:09:02.667Z,20.69
2023-06-19T02:10:02.756Z,20.65
2023-06-19T02:11:02.168Z,20.62
2023-06-19T02:12:02.377Z,20.55
2023-06-19T02:13:02.523Z,20.51
2023-06-19T02:14:02.395Z,20.48
2023-06-19T02:15:02.870Z,20.47
2023-06-19T02:16:02.740Z,20.51
2023-06-19T02:17:01.942Z,20.54
2023-06-19T02:18:02.048Z,20.56
2023-06-19T02:19:02.170Z,20.56
2023-06-19T02:20:02.465Z,20.58
2023-06-19T02:21:02.271Z,20.59
2023-06-19T02:22:02.258Z,20.57
2023-06-19T02:23:02.418Z,20.56
2023-06-19T02:24:02.549Z,20.54
2023-06-19T02:25:02.617Z,20.52
2023-06-19T02:26:02.470Z,20.52
2023-06-19T02:27:02.586Z,20.50
2023-06-19T02:28:03.138Z,20.47
2023-06-19T02:29:03.069Z,20.43
2023-06-19T02:30:03.183Z,20.45
2023-06-19T02:31:02.958Z,20.46
2023-06-19T02:32:02.225Z,20.49
2023-06-19T02:33:02.591Z,20.53
2023-06-19T02:34:02.305Z,20.56
2023-06-19T02:35:02.308Z,20.55
2023-06-19T02:36:02.387Z,20.51
2023-06-19T02:37:02.516Z,20.48
2023-06-19T02:38:02.629Z,20.48
2023-06-19T02:39:02.746Z,20.46
2023-06-19T02:40:02.903Z,20.48
2023-06-19T02:41:02.934Z,20.52
2023-06-19T02:42:02.303Z,20.54
2023-06-19T02:43:02.193Z,20.55
2023-06-19T02:44:01.954Z,20.53
2023-06-19T02:45:02.068Z,20.50
2023-06-19T02:46:02.265Z,20.51
2023-06-19T02:47:02.406Z,20.51
2023-06-19T02:48:02.542Z,20.51
2023-06-19T02:49:02.470Z,20.48
2023-06-19T02:50:02.598Z,20.43
2023-06-19T02:51:02.516Z,20.41
2023-06-19T02:52:02.645Z,20.38
2023-06-19T02:53:02.793Z,20.35
2023-06-19T02:54:02.503Z,20.28
2023-06-19T02:55:03.022Z,20.24
2023-06-19T02:56:03.176Z,20.20
2023-06-19T02:57:02.402Z,20.20
2023-06-19T02:58:02.019Z,20.21
2023-06-19T02:59:02.263Z,20.24
2023-06-19T03:00:02.441Z,20.24
2023-06-19T03:01:01.825Z,20.21
2023-06-19T03:02:02.710Z,20.14
2023-06-19T03:03:02.509Z,20.06
2023-06-19T03:04:02.780Z,20.10
2023-06-19T03:05:02.983Z,20.10
2023-06-19T03:06:02.941Z,20.10
2023-06-19T03:07:03.092Z,20.09
2023-06-19T03:08:03.290Z,20.11
2023-06-19T03:09:02.894Z,20.17
2023-06-19T03:10:03.448Z,20.22
2023-06-19T03:11:02.845Z,20.26
2023-06-19T03:12:02.799Z,20.20
2023-06-19T03:13:02.466Z,20.18
2023-06-19T03:14:02.814Z,20.21
2023-06-19T03:15:03.015Z,20.24
2023-06-19T03:16:02.517Z,20.25
2023-06-19T03:17:03.252Z,20.22
2023-06-19T03:18:03.520Z,20.17
2023-06-19T03:19:03.621Z,20.14
2023-06-19T03:20:03.756Z,20.13
2023-06-19T03:21:03.289Z,20.12
2023-06-19T03:22:03.098Z,20.11
2023-06-19T03:23:03.062Z,20.10
2023-06-19T03:24:03.358Z,20.08
2023-06-19T03:25:02.977Z,20.09
2023-06-19T03:26:03.197Z,20.07
2023-06-19T03:27:03.426Z,20.04
2023-06-19T03:28:03.679Z,20.02
2023-06-19T03:29:03.119Z,20.01
2023-06-19T03:30:03.273Z,19.97
2023-06-19T03:31:03.402Z,19.93
2023-06-19T03:32:03.577Z,19.89
2023-06-19T03:33:03.873Z,19.87
2023-06-19T03:34:03.697Z,19.92
2023-06-19T03:35:03.797Z,19.96
2023-06-19T03:36:03.306Z,19.95
2023-06-19T03:37:03.218Z,19.94
2023-06-19T03:38:03.433Z,19.94
2023-06-19T03:39:03.087Z,19.88
2023-06-19T03:40:03.205Z,19.85
2023-06-19T03:41:03.454Z,19.79
2023-06-19T03:42:03.626Z,19.81
2023-06-19T03:43:03.856Z,19.80
2023-06-19T03:44:03.780Z,19.76
2023-06-19T03:45:03.255Z,19.74
2023-06-19T03:46:03.580Z,19.71
2023-06-19T03:47:02.810Z,19.71
2023-06-19T03:48:02.611Z,19.69
2023-06-19T03:49:02.893Z,19.68
2023-06-19T03:50:18.964Z,19.67
2023-06-19T03:51:02.864Z,19.67
2023-06-19T03:52:03.594Z,19.64
2023-06-19T03:53:03.141Z,19.62
2023-06-19T03:54:03.411Z,19.63
2023-06-19T03:55:03.604Z,19.69
2023-06-19T03:56:03.144Z,19.69
2023-06-19T03:57:03.155Z,19.70
2023-06-19T03:58:02.969Z,19.73
2023-06-19T03:59:03.217Z,19.70
2023-06-19T04:00:03.270Z,19.69
2023-06-19T04:01:03.114Z,19.69
2023-06-19T04:02:03.455Z,19.66
2023-06-19T04:03:03.120Z,19.66
2023-06-19T04:04:03.338Z,19.64
2023-06-19T04:05:02.914Z,19.63
2023-06-19T04:06:02.955Z,19.61
2023-06-19T04:07:03.004Z,19.62
2023-06-19T04:08:02.358Z,19.62
2023-06-19T04:09:02.613Z,19.61
2023-06-19T04:10:02.406Z,19.60
2023-06-19T04:11:02.692Z,19.62
2023-06-19T04:12:02.724Z,19.63
2023-06-19T04:13:02.412Z,19.63
2023-06-19T04:14:02.674Z,19.64
2023-06-19T04:15:02.732Z,19.64
2023-06-19T04:16:02.714Z,19.62
2023-06-19T04:17:02.788Z,19.64
2023-06-19T04:18:03.059Z,19.63
2023-06-19T04:19:02.726Z,19.63
2023-06-19T04:20:03.225Z,19.68
2023-06-19T04:21:03.355Z,19.66
2023-06-19T04:22:02.427Z,19.63
2023-06-19T04:23:02.706Z,19.62
2023-06-19T04:24:02.908Z,19.60
2023-06-19T04:25:02.657Z,19.59
2023-06-19T04:26:02.987Z,19.61
2023-06-19T04:27:02.159Z,19.61
2023-06-19T04:28:02.178Z,19.60
2023-06-19T04:29:02.488Z,19.61
2023-06-19T04:30:02.727Z,19.63
2023-06-19T04:31:02.203Z,19.65
2023-06-19T04:32:02.772Z,19.67
2023-06-19T04:33:02.563Z,19.70
2023-06-19T04:34:02.736Z,19.73
2023-06-19T04:35:03.027Z,19.78
2023-06-19T04:36:03.078Z,19.86
2023-06-19T04:37:02.736Z,19.88
2023-06-19T04:38:02.852Z,19.92
2023-06-19T04:39:03.091Z,19.96
2023-06-19T04:40:02.676Z,20.03
2023-06-19T04:41:02.686Z,20.07
2023-06-19T04:42:02.969Z,20.09
2023-06-19T04:43:03.093Z,20.11
2023-06-19T04:44:03.131Z,20.13
2023-06-19T04:45:03.122Z,20.15
2023-06-19T04:46:03.284Z,20.16
2023-06-19T04:47:02.568Z,20.16
2023-06-19T04:48:02.840Z,20.19
2023-06-19T04:49:03.019Z,20.21
2023-06-19T04:50:02.977Z,20.25
2023-06-19T04:51:02.948Z,20.28
2023-06-19T04:52:03.088Z,20.30
2023-06-19T04:53:03.539Z,20.33
2023-06-19T04:54:03.066Z,20.36
2023-06-19T04:55:03.319Z,20.40
2023-06-19T04:56:03.444Z,20.43
2023-06-19T04:57:02.511Z,20.48
2023-06-19T04:58:02.796Z,20.54
2023-06-19T04:59:02.380Z,20.57
2023-06-19T05:00:02.658Z,20.60
2023-06-19T05:01:02.905Z,20.63
2023-06-19T05:02:02.922Z,20.65
2023-06-19T05:03:03.390Z,20.66
2023-06-19T05:04:03.154Z,20.68
2023-06-19T05:05:02.906Z,20.72
2023-06-19T05:06:03.196Z,20.76
2023-06-19T05:07:02.539Z,20.79
2023-06-19T05:08:02.627Z,20.81
2023-06-19T05:09:02.420Z,20.84
2023-06-19T05:10:02.608Z,20.86
2023-06-19T05:11:02.603Z,20.89
2023-06-19T05:12:02.879Z,20.92
2023-06-19T05:13:03.155Z,20.96
2023-06-19T05:14:02.680Z,20.99
2023-06-19T05:15:02.677Z,21.03
2023-06-19T05:16:02.777Z,21.06
2023-06-19T05:17:02.325Z,21.10
2023-06-19T05:18:02.427Z,21.12
2023-06-19T05:19:02.022Z,21.18
2023-06-19T05:20:02.373Z,21.21
2023-06-19T05:21:02.157Z,21.25
2023-06-19T05:22:02.424Z,21.26
2023-06-19T05:23:02.311Z,21.27
2023-06-19T05:24:02.280Z,21.25
2023-06-19T05:25:02.630Z,21.25
2023-06-19T05:26:02.223Z,21.27
2023-06-19T05:27:03.144Z,21.32
2023-06-19T05:28:05.648Z,21.35
2023-06-19T05:29:03.011Z,21.39
2023-06-19T05:30:03.327Z,21.42
2023-06-19T05:31:03.037Z,21.46
2023-06-19T05:32:03.300Z,21.46
2023-06-19T05:33:03.553Z,21.49
2023-06-19T05:34:03.663Z,21.54
2023-06-19T05:35:03.603Z,21.57
2023-06-19T05:36:03.089Z,21.57
2023-06-19T05:37:02.994Z,21.60
2023-06-19T05:38:03.262Z,21.63
2023-06-19T05:39:02.956Z,21.66
2023-06-19T05:40:03.188Z,21.67
2023-06-19T05:41:02.790Z,21.69
2023-06-19T05:42:03.080Z,21.72
2023-06-19T05:43:03.110Z,21.72
2023-06-19T05:44:03.344Z,21.75
2023-06-19T05:45:03.309Z,21.79
2023-06-19T05:46:02.868Z,21.82
2023-06-19T05:47:03.241Z,21.82
2023-06-19T05:48:03.518Z,21.83
2023-06-19T05:49:03.538Z,21.88
2023-06-19T05:50:03.049Z,21.94
2023-06-19T05:51:03.270Z,21.93
2023-06-19T05:52:03.338Z,21.93
2023-06-19T05:53:03.423Z,21.94
2023-06-19T05:54:03.452Z,21.96
2023-06-19T05:55:03.705Z,21.99
2023-06-19T05:56:03.404Z,22.00
2023-06-19T05:57:02.714Z,22.00
2023-06-19T05:58:02.874Z,22.05
2023-06-19T05:59:02.597Z,22.09
2023-06-19T06:00:02.777Z,22.14
2023-06-19T06:01:02.940Z,22.18
2023-06-19T06:02:02.412Z,22.21
2023-06-19T06:03:02.188Z,22.25
2023-06-19T06:04:02.433Z,22.33
2023-06-19T06:05:02.509Z,22.38
2023-06-19T06:06:02.001Z,22.48
2023-06-19T06:07:02.972Z,22.59
2023-06-19T06:08:03.178Z,22.66
2023-06-19T06:09:03.211Z,22.71
2023-06-19T06:10:03.176Z,22.75
2023-06-19T06:11:02.551Z,22.88
2023-06-19T06:12:02.669Z,22.94
2023-06-19T06:13:02.550Z,23.01
2023-06-19T06:14:02.095Z,23.04
2023-06-19T06:15:02.322Z,23.14
2023-06-19T06:16:02.496Z,23.25
2023-06-19T06:17:02.472Z,23.32
2023-06-19T06:18:02.474Z,23.37
2023-06-19T06:19:02.455Z,23.40
2023-06-19T06:20:02.425Z,23.45
2023-06-19T06:21:02.402Z,23.54
2023-06-19T06:22:02.580Z,23.64
2023-06-19T06:23:02.069Z,23.71
2023-06-19T06:24:02.174Z,23.82
2023-06-19T06:25:02.373Z,23.89
2023-06-19T06:26:02.733Z,23.97
2023-06-19T06:27:02.427Z,24.13
2023-06-19T06:28:02.703Z,24.29
2023-06-19T06:29:02.728Z,24.41
2023-06-19T06:30:02.291Z,24.45
2023-06-19T06:31:02.555Z,24.48
2023-06-19T06:32:02.801Z,24.46
2023-06-19T06:33:02.900Z,24.40
2023-06-19T06:34:02.745Z,24.47
2023-06-19T06:35:02.304Z,24.61
2023-06-19T06:36:02.643Z,24.69
2023-06-19T06:37:06.546Z,24.76
2023-06-19T06:38:02.922Z,24.74
2023-06-19T06:39:02.419Z,24.73
2023-06-19T06:40:03.006Z,24.74
2023-06-19T06:41:02.445Z,24.78
2023-06-19T06:42:02.356Z,24.80
2023-06-19T06:43:02.370Z,24.78
2023-06-19T06:44:02.218Z,24.79
2023-06-19T06:45:01.834Z,24.82
2023-06-19T06:46:02.000Z,24.87
2023-06-19T06:47:02.531Z,24.87
2023-06-19T06:48:02.734Z,24.90
2023-06-19T06:49:02.891Z,24.91
2023-06-19T06:50:03.161Z,25.00
2023-06-19T06:51:02.926Z,25.08
2023-06-19T06:52:03.122Z,25.11
2023-06-19T06:53:03.085Z,25.10
2023-06-19T06:54:03.183Z,25.14
2023-06-19T06:55:03.105Z,25.21
2023-06-19T06:56:02.731Z,25.20
2023-06-19T06:57:02.667Z,25.14
2023-06-19T06:58:02.318Z,25.14
2023-06-19T06:59:02.294Z,25.14
2023-06-19T07:00:02.066Z,25.12
2023-06-19T07:01:02.382Z,25.07
2023-06-19T07:02:03.275Z,25.11
2023-06-19T07:03:02.799Z,25.16
2023-06-19T07:04:02.855Z,25.15
2023-06-19T07:05:03.011Z,25.19
2023-06-19T07:06:03.011Z,25.22
2023-06-19T07:07:02.724Z,25.22
2023-06-19T07:08:02.691Z,25.24
2023-06-19T07:09:02.575Z,25.23
2023-06-19T07:10:02.770Z,25.22
2023-06-19T07:11:02.433Z,25.25
2023-06-19T07:12:03.340Z,25.24
2023-06-19T07:13:02.820Z,25.23
2023-06-19T07:14:02.996Z,25.16
2023-06-19T07:15:03.123Z,25.12
2023-06-19T07:16:02.645Z,25.12
2023-06-19T07:17:03.465Z,25.10
2023-06-19T07:18:03.176Z,25.08
2023-06-19T07:19:03.381Z,25.06
2023-06-19T07:20:03.231Z,25.05
2023-06-19T07:21:03.457Z,25.07
2023-06-19T07:22:02.443Z,25.11
2023-06-19T07:23:02.873Z,25.10
2023-06-19T07:24:02.710Z,25.08
2023-06-19T07:25:02.864Z,25.09
2023-06-19T07:26:02.457Z,25.07
2023-06-19T07:27:02.738Z,25.11
2023-06-19T07:28:02.896Z,25.15
2023-06-19T07:29:03.034Z,25.25
2023-06-19T07:30:02.955Z,25.40
2023-06-19T07:31:02.968Z,25.49
2023-06-19T07:32:02.788Z,25.54
2023-06-19T07:33:02.896Z,25.67
2023-06-19T07:34:03.233Z,25.75
2023-06-19T07:35:02.793Z,25.83
2023-06-19T07:36:02.963Z,25.88
2023-06-19T07:37:02.293Z,25.81
2023-06-19T07:38:02.665Z,25.85
2023-06-19T07:39:02.794Z,25.86
2023-06-19T07:40:02.463Z,25.88
2023-06-19T07:41:02.472Z,25.94
2023-06-19T07:42:02.728Z,26.00
2023-06-19T07:43:03.296Z,26.03
2023-06-19T07:44:03.203Z,26.01
2023-06-19T07:45:02.764Z,26.05
2023-06-19T07:46:02.706Z,26.13
2023-06-19T07:47:02.331Z,26.21
2023-06-19T07:48:02.704Z,26.23
2023-06-19T07:49:02.326Z,26.33
2023-06-19T07:50:02.647Z,26.43
2023-06-19T07:51:02.751Z,26.43
2023-06-19T07:52:02.673Z,26.42
2023-06-19T07:53:02.948Z,26.45
2023-06-19T07:54:02.519Z,26.52
2023-06-19T07:55:02.780Z,26.56
2023-06-19T07:56:02.874Z,26.59
2023-06-19T07:57:02.978Z,26.58
2023-06-19T07:58:03.147Z,26.62
2023-06-19T07:59:05.844Z,26.45
2023-06-19T08:00:03.633Z,26.35
2023-06-19T08:01:02.929Z,26.28
2023-06-19T08:02:03.370Z,26.28
2023-06-19T08:03:03.644Z,26.32
2023-06-19T08:04:03.883Z,26.41
2023-06-19T08:05:03.901Z,26.46
2023-06-19T08:06:03.724Z,26.39
2023-06-19T08:07:03.390Z,26.28
2023-06-19T08:08:03.488Z,26.29
2023-06-19T08:09:03.601Z,26.35
2023-06-19T08:10:13.184Z,26.34
2023-06-19T08:11:03.580Z,26.30
2023-06-19T08:12:02.664Z,26.31
2023-06-19T08:13:02.774Z,26.39
2023-06-19T08:14:03.108Z,26.45
2023-06-19T08:15:02.604Z,26.48
2023-06-19T08:16:03.032Z,26.57
2023-06-19T08:17:03.315Z,26.71
2023-06-19T08:18:03.502Z,26.84
2023-06-19T08:19:03.100Z,26.85
2023-06-19T08:20:03.325Z,26.90
2023-06-19T08:21:03.492Z,27.00
2023-06-19T08:22:02.838Z,27.04
2023-06-19T08:23:05.157Z,26.99
2023-06-19T08:24:03.362Z,27.01
2023-06-19T08:25:03.358Z,27.02
2023-06-19T08:26:02.627Z,27.19
2023-06-19T08:27:03.374Z,27.29
2023-06-19T08:28:03.395Z,27.29
2023-06-19T08:29:03.586Z,27.36
2023-06-19T08:30:03.820Z,27.46
2023-06-19T08:31:03.424Z,27.48
2023-06-19T08:32:03.593Z,27.54
2023-06-19T08:33:03.828Z,27.58
2023-06-19T08:34:03.625Z,27.59
2023-06-19T08:35:03.528Z,27.57
2023-06-19T08:36:03.707Z,27.48
2023-06-19T08:37:03.027Z,27.32
2023-06-19T08:38:03.273Z,27.22
2023-06-19T08:39:03.395Z,27.24
2023-06-19T08:40:03.367Z,27.19
2023-06-19T08:41:02.854Z,27.14
2023-06-19T08:42:03.681Z,27.16
2023-06-19T08:43:03.699Z,27.15
2023-06-19T08:44:03.831Z,27.09
2023-06-19T08:45:03.972Z,27.03
2023-06-19T08:46:03.764Z,27.02
2023-06-19T08:47:03.085Z,26.88
2023-06-19T08:48:03.038Z,26.80
2023-06-19T08:49:03.307Z,26.82
2023-06-19T08:50:03.216Z,26.93
2023-06-19T08:51:02.856Z,27.02
2023-06-19T08:52:03.062Z,27.15
2023-06-19T08:53:03.350Z,27.33
2023-06-19T08:54:02.884Z,27.35
2023-06-19T08:55:03.360Z,27.41
2023-06-19T08:56:02.862Z,27.49
2023-06-19T08:57:03.867Z,27.57
2023-06-19T08:58:03.493Z,27.45
2023-06-19T08:59:03.545Z,27.31
2023-06-19T09:00:03.755Z,27.24
2023-06-19T09:01:04.080Z,27.23
2023-06-19T09:02:02.433Z,27.28
2023-06-19T09:03:13.395Z,27.41
2023-06-19T09:04:02.511Z,27.62
2023-06-19T09:05:02.225Z,27.70
2023-06-19T09:06:02.477Z,27.63
2023-06-19T09:07:02.807Z,27.73
2023-06-19T09:08:02.884Z,27.89
2023-06-19T09:09:02.779Z,27.99
2023-06-19T09:10:02.283Z,28.17
2023-06-19T09:11:02.451Z,28.28
2023-06-19T09:12:02.371Z,28.35
2023-06-19T09:13:01.952Z,28.32
2023-06-19T09:14:02.243Z,28.37
2023-06-19T09:15:02.350Z,28.55
2023-06-19T09:16:02.466Z,28.62
2023-06-19T09:17:02.775Z,28.70
2023-06-19T09:18:02.381Z,28.74
2023-06-19T09:19:02.654Z,28.83
2023-06-19T09:20:02.788Z,28.84
2023-06-19T09:21:02.353Z,28.81
2023-06-19T09:22:02.965Z,28.87
2023-06-19T09:23:02.501Z,28.85
2023-06-19T09:24:02.907Z,28.79
2023-06-19T09:25:02.992Z,28.61
2023-06-19T09:26:03.144Z,28.58
2023-06-19T09:27:03.085Z,28.49
2023-06-19T09:28:02.611Z,28.40
2023-06-19T09:29:02.716Z,28.41
2023-06-19T09:30:03.006Z,28.37
2023-06-19T09:31:03.163Z,28.31
2023-06-19T09:32:02.443Z,28.23
2023-06-19T09:33:02.004Z,28.21
2023-06-19T09:34:02.300Z,28.13
2023-06-19T09:35:02.462Z,28.08
2023-06-19T09:36:02.749Z,28.05
2023-06-19T09:37:02.720Z,28.16
2023-06-19T09:38:02.814Z,28.28
2023-06-19T09:39:02.756Z,28.45
2023-06-19T09:40:02.362Z,28.52
2023-06-19T09:41:02.618Z,28.56
2023-06-19T09:42:02.943Z,28.65
2023-06-19T09:43:02.491Z,28.72
2023-06-19T09:44:02.702Z,28.72
2023-06-19T09:45:03.014Z,28.80
2023-06-19T09:46:03.020Z,28.93
2023-06-19T09:47:03.303Z,29.00
2023-06-19T09:48:02.883Z,29.16
2023-06-19T09:49:03.116Z,29.32
2023-06-19T09:50:03.223Z,29.43
2023-06-19T09:51:02.856Z,29.47
2023-06-19T09:52:02.893Z,29.54
2023-06-19T09:53:05.252Z,29.63
2023-06-19T09:54:02.630Z,29.67
2023-06-19T09:55:02.943Z,29.78
2023-06-19T09:56:02.777Z,29.89
2023-06-19T09:57:03.141Z,29.91
2023-06-19T09:58:03.158Z,29.92
2023-06-19T09:59:02.755Z,30.04
2023-06-19T10:00:03.110Z,30.10
2023-06-19T10:01:02.558Z,30.13
2023-06-19T10:02:02.622Z,30.14
2023-06-19T10:03:02.108Z,30.14
2023-06-19T10:04:02.315Z,30.13
2023-06-19T10:05:02.550Z,30.20
2023-06-19T10:06:02.553Z,30.30
2023-06-19T10:07:02.714Z,30.43
2023-06-19T10:08:02.180Z,30.55
2023-06-19T10:09:02.420Z,30.73
2023-06-19T10:10:02.352Z,30.87
2023-06-19T10:11:02.476Z,30.98
2023-06-19T10:12:03.303Z,31.11
2023-06-19T10:13:03.128Z,31.18
2023-06-19T10:14:02.704Z,31.28
2023-06-19T10:15:02.911Z,31.31
2023-06-19T10:16:02.854Z,31.00
2023-06-19T10:17:03.644Z,30.86
2023-06-19T10:18:03.597Z,30.99
2023-06-19T10:19:03.583Z,31.03
2023-06-19T10:20:03.616Z,31.00
2023-06-19T10:21:03.617Z,31.06
2023-06-19T10:22:02.657Z,31.18
2023-06-19T10:23:02.743Z,31.31
2023-06-19T10:24:03.506Z,31.39
2023-06-19T10:25:03.007Z,31.47
2023-06-19T10:26:04.196Z,31.50
2023-06-19T10:27:02.732Z,31.53
2023-06-19T10:28:03.098Z,31.40
2023-06-19T10:29:03.318Z,31.29
2023-06-19T10:30:10.980Z,31.24
2023-06-19T10:31:03.448Z,31.20
2023-06-19T10:32:03.403Z,31.24
2023-06-19T10:33:02.628Z,31.39
2023-06-19T10:34:02.753Z,31.55
2023-06-19T10:35:02.999Z,31.61
2023-06-19T10:36:02.536Z,31.72
2023-06-19T10:37:02.788Z,31.75
2023-06-19T10:38:03.093Z,31.67
2023-06-19T10:39:03.283Z,31.77
2023-06-19T10:40:03.533Z,31.82
2023-06-19T10:41:03.000Z,31.86
2023-06-19T10:42:05.816Z,31.98
2023-06-19T10:43:02.915Z,31.98
2023-06-19T10:44:02.958Z,31.87
2023-06-19T10:45:02.881Z,31.85
2023-06-19T10:46:02.859Z,31.79
2023-06-19T10:47:02.926Z,31.84
2023-06-19T10:48:02.973Z,31.98
2023-06-19T10:49:02.987Z,31.92
2023-06-19T10:50:02.366Z,31.79
2023-06-19T10:51:02.670Z,31.78
2023-06-19T10:52:02.930Z,31.71
2023-06-19T10:53:02.583Z,31.69
2023-06-19T10:54:02.920Z,31.62
2023-06-19T10:55:03.189Z,31.70
2023-06-19T10:56:02.720Z,31.90
2023-06-19T10:57:02.929Z,32.12
2023-06-19T10:58:03.818Z,32.32
2023-06-19T10:59:03.332Z,32.42
2023-06-19T11:00:03.876Z,32.39
2023-06-19T11:01:03.422Z,32.35
2023-06-19T11:02:03.551Z,32.32
2023-06-19T11:03:03.102Z,32.11
2023-06-19T11:04:02.546Z,32.09
2023-06-19T11:05:02.901Z,32.21
2023-06-19T11:06:02.386Z,32.30
2023-06-19T11:07:02.623Z,32.37
2023-06-19T11:08:01.963Z,32.40
2023-06-19T11:09:02.170Z,32.47
2023-06-19T11:10:02.383Z,32.54
2023-06-19T11:11:01.973Z,32.58
2023-06-19T11:12:02.219Z,32.73
2023-06-19T11:13:02.478Z,32.88
2023-06-19T11:14:02.648Z,32.99
2023-06-19T11:15:02.857Z,33.09
2023-06-19T11:16:03.140Z,33.16
2023-06-19T11:17:02.576Z,33.12
2023-06-19T11:18:02.000Z,33.13
2023-06-19T11:19:02.358Z,33.18
2023-06-19T11:20:02.160Z,33.21
2023-06-19T11:21:03.104Z,33.36
2023-06-19T11:22:02.454Z,33.44
2023-06-19T11:23:02.701Z,33.42
2023-06-19T11:24:02.668Z,33.54
2023-06-19T11:25:02.198Z,33.56
2023-06-19T11:26:02.505Z,33.55
2023-06-19T11:27:02.690Z,33.50
2023-06-19T11:28:03.249Z,33.52
2023-06-19T11:29:02.758Z,33.58
2023-06-19T11:30:03.067Z,33.58
2023-06-19T11:31:03.468Z,33.54
2023-06-19T11:32:02.706Z,33.69
2023-06-19T11:33:02.073Z,33.78
2023-06-19T11:34:02.431Z,33.81
2023-06-19T11:35:02.109Z,33.78
2023-06-19T11:36:02.512Z,33.64
2023-06-19T11:37:02.087Z,33.50
2023-06-19T11:38:02.475Z,33.50
2023-06-19T11:39:02.755Z,33.58
2023-06-19T11:40:02.936Z,33.49
2023-06-19T11:41:02.904Z,33.52
2023-06-19T11:42:02.265Z,33.53
2023-06-19T11:43:02.425Z,33.73
2023-06-19T11:44:02.723Z,33.84
2023-06-19T11:45:02.920Z,33.75
2023-06-19T11:46:03.228Z,33.56
2023-06-19T11:47:03.133Z,33.46
2023-06-19T11:48:03.119Z,33.24
2023-06-19T11:49:07.452Z,32.95
2023-06-19T11:50:03.117Z,32.74
2023-06-19T11:51:03.448Z,32.65
2023-06-19T11:52:03.785Z,32.63
2023-06-19T11:53:02.796Z,32.68
2023-06-19T11:54:03.073Z,32.69
2023-06-19T11:55:02.800Z,32.70
2023-06-19T11:56:03.165Z,32.69
2023-06-19T11:57:03.409Z,32.73
2023-06-19T11:58:02.488Z,32.93
2023-06-19T11:59:02.326Z,33.14
2023-06-19T12:00:02.646Z,33.25
2023-06-19T12:01:02.993Z,33.13
2023-06-19T12:02:03.082Z,32.84
2023-06-19T12:03:03.239Z,32.54
2023-06-19T12:04:03.788Z,32.59
2023-06-19T12:05:03.371Z,32.72
2023-06-19T12:06:03.713Z,32.82
2023-06-19T12:07:03.623Z,32.86
2023-06-19T12:08:02.991Z,32.89
2023-06-19T12:09:02.690Z,32.95
2023-06-19T12:10:04.007Z,33.02
2023-06-19T12:11:03.342Z,33.14
2023-06-19T12:12:03.235Z,33.26
2023-06-19T12:13:03.321Z,33.35
2023-06-19T12:14:03.656Z,33.30
2023-06-19T12:15:03.326Z,33.21
2023-06-19T12:16:03.286Z,33.03
2023-06-19T12:17:03.630Z,32.94
2023-06-19T12:18:03.137Z,32.85
2023-06-19T12:19:02.770Z,32.88
2023-06-19T12:20:02.929Z,32.99
2023-06-19T12:21:03.264Z,33.20
2023-06-19T12:22:03.345Z,33.27
2023-06-19T12:23:03.597Z,33.35
2023-06-19T12:24:03.643Z,33.42
2023-06-19T12:25:03.858Z,33.44
2023-06-19T12:26:03.883Z,33.42
2023-06-19T12:27:03.927Z,33.35
2023-06-19T12:28:03.428Z,33.37
2023-06-19T12:29:03.066Z,33.36
2023-06-19T12:30:03.407Z,33.46
2023-06-19T12:31:03.026Z,33.50
2023-06-19T12:32:03.210Z,33.57
2023-06-19T12:33:03.549Z,33.70
2023-06-19T12:34:10.424Z,33.81
2023-06-19T12:35:03.591Z,33.87
2023-06-19T12:36:03.279Z,33.99
2023-06-19T12:37:03.592Z,34.04
2023-06-19T12:38:06.653Z,34.12
2023-06-19T12:39:03.796Z,34.14
2023-06-19T12:40:04.045Z,34.03
2023-06-19T12:41:03.844Z,33.95
2023-06-19T12:42:04.158Z,33.86
2023-06-19T12:43:03.591Z,33.67
2023-06-19T12:44:03.789Z,33.58
2023-06-19T12:45:03.821Z,33.67
2023-06-19T12:46:03.263Z,33.74
2023-06-19T12:47:03.496Z,33.46
2023-06-19T12:48:04.153Z,33.32
2023-06-19T12:49:03.823Z,33.35
2023-06-19T12:50:03.507Z,33.44
2023-06-19T12:51:03.787Z,33.55
2023-06-19T12:52:03.684Z,33.60